AirNav   Duncan Aviation - Near you to keep you flying
 
 1629 users online  

51WA Evergreen Sky Ranch Airport
Black Diamond, Washington, USA

GOING TO BLACK DIAMOND?


FAA INFORMATION EFFECTIVE 04 NOVEMBER 2021

Location

FAA Identifier: 51WA
Lat/Long: 47-16-05.3620N 122-04-04.4130W
47-16.089367N 122-04.073550W
47.2681561,-122.0678925
(estimated)
Elevation: 580 ft. / 177 m (estimated)
Variation: 18E (2010)
From city: 3 miles SSW of BLACK DIAMOND, WA
Time zone: UTC -7 (UTC -8 during Standard Time)
Zip code: 98092

Airport Operations

Airport use: Private use. Permission required prior to landing
Activation date: 08/1977
Control tower: no
ARTCC: SEATTLE CENTER
FSS: SEATTLE FLIGHT SERVICE STATION
Attendance: UNATNDD
Wind indicator: yes
Segmented circle: no
Lights: ACTVT VASI RWY 16; HIRL 16/34-122.925

Airport Communications

CTAF: 122.9
WX AWOS-3 at PLU (13 nm SW): 128.575 (253-848-2748)
WX ASOS at SEA (15 nm NW): PHONE 206-214-2592
WX ASOS at RNT (15 nm NW): 126.95 (425-255-6080)
WX ASOS at BFI (18 nm NW): PHONE 206-658-6435
WX ASOS at TCM (18 nm SW): PHONE 253-982-3434

Nearby radio navigation aids

VOR radial/distance  VOR name  Freq  Var
SEAr117/14.0SEATTLE VORTAC116.8019E
OLMr043/38.4OLYMPIA VORTAC113.4019E

Airport Services

Runway Information

Runway 16/34

Dimensions: 2600 x 75 ft. / 792 x 23 m
Surface: turf
Runway edge lights: high intensity
RUNWAY 16  RUNWAY 34
Traffic pattern: leftleft
Visual slope indicator: VAS (3.50 degrees glide path)
NON STD APCH GLIDE ANGLE 3.50 DEG.
Obstructions: none80 ft. trees, 300 ft. from runway

Airport Ownership and Management from official FAA records

Ownership: Privately-owned
Owner: AVION CORPORATION
20600 SE 376TH ST
AUBURN, WA 98092
Phone 253-735-1612
Manager: DAVID LAWRENCE
20600 SE 376TH ST
AUBURN, WA 98092
Phone 253-735-1612

Airport Operational Statistics

Aircraft based on the field: 26
Single engine airplanes: 25
Multi engine airplanes: 1
    

Additional Remarks

RUN-UP AT MIDFIELD BEFORE TAKEOFF.
FOR CD CTC SEATTLE APCH AT 206-214-4794.

Instrument Procedures

There are no published instrument procedures at 51WA.

Some nearby airports with instrument procedures:

S50 - Auburn Municipal Airport (7 nm NW)
KPLU - Pierce County Airport - Thun Field (13 nm SW)
KSEA - Seattle-Tacoma International Airport (15 nm NW)
KRNT - Renton Municipal Airport (15 nm NW)
KBFI - Boeing Field/King County International Airport (18 nm NW)
KTCM - McChord Field Airport (Joint Base Lewis-McChord) (18 nm SW)
 
Loc | Ops | Rwys | IFR | FBO | Links
Com | Nav | Svcs | Stats | Notes
Area around 51WA (Evergreen Sky Ranch Airport)
 
Road maps at: MapQuest Bing Google
 
Aerial photo
WARNING: Photo may not be current or correct
Aerial photo of 51WA (Evergreen Sky Ranch Airport)
Photo by Tim Heneghan
Photo taken 28-Jan-2017
looking southeast.

Do you have a better or more recent aerial photo of Evergreen Sky Ranch Airport that you would like to share? If so, please send us your photo.

 
Sectional chart

 
Airport distance calculator
Flying to Evergreen Sky Ranch Airport? Find the distance to fly.

From to 51WA

Sunrise and sunset
Times for 30-Nov-2021
 Local
(UTC-8)
 Zulu
(UTC)
Morning civil twilight06:5914:59
Sunrise07:3415:34
Sunset16:2000:20
Evening civil twilight16:5500:55

Current date and time
Zulu (UTC)  30-Nov-2021 18:16:04
Local (UTC-8)  30-Nov-2021 10:16:04
 
METAR
KPLU 
13nm SW 
301755Z AUTO 22008G16KT 180V250 8SM SCT036 BKN042 OVC049 12/09 A3024 RMK AO2
KSEA 
15nm NW 
301753Z 21011KT 10SM SCT009 BKN027 OVC045 11/10 A3022 RMK AO2 RAE25 SLP238 P0000 60002 T01110100 10117 20111 53018
KRNT 
15nm NW 
301753Z 18005KT 10SM OVC014 12/10 A3022 RMK AO2 SLP237 6//// T01220100 10128 20111 53015
KTCM 
19nm SW 
301801Z AUTO 21007KT 10SM -RA FEW021 BKN028 OVC033 11/11 A3024 RMK AO2 RAB01 CIG 028V033 BKN V SCT SLP245 $
KBFI 
20nm NW 
301753Z 20012G19KT 10SM SCT014 BKN023 OVC060 12/10 A3022 RMK AO2 SLP232 60000 T01220100 10122 20117 53018
KTIW 
21nm W 
301753Z 21010KT 5SM BR SCT009 BKN033 OVC040 11/11 A3024 RMK AO2 SLP240 60007 T01060106 10111 20100 53020
KGRF 
24nm SW 
301758Z 15011KT 10SM -RA FEW019 OVC035 12/10 A3022 RMK AO2A SLP238 P0002 60009 T01150096 10126 20115 52023 $
TAF
KSEA 
15nm NW 
300757Z 3008/0112 19008KT P6SM VCSH SCT010 OVC017 TEMPO 3008/3012 BKN008 FM301200 18012KT P6SM VCSH OVC012 FM302100 18012G20KT P6SM VCSH OVC015
KTCM 
19nm SW 
300500Z 3005/0111 VRB06KT 9999 SCT040 BKN060 QNH3015INS TEMPO 3008/3014 BKN015 BECMG 3013/3014 21012KT 8000 -SHRA BKN012 OVC020 610809 510103 QNH3017INS BECMG 3019/3020 20012G18KT 8000 -SHRA BKN020 OVC040 610904 510106 QNH3018INS BECMG 0105/0106 20010KT 9999 NSW BKN025 OVC050 620909 510102 QNH3019INS TX13/3021Z TN08/3005Z
KBFI 
20nm NW 
301720Z 3018/0118 21007KT P6SM -RA BKN027 OVC060 FM302100 17010G18KT P6SM -RA OVC025 FM010400 16009KT P6SM -RA OVC020 FM011000 16009KT P6SM VCSH BKN022
NOTAMs
Click for the latest NOTAMs
NOTAMs are issued by the DoD/FAA and will open in a separate window not controlled by AirNav.

 

 
 

Would you like to see your business listed on this page?

 If your business provides an interesting product or service to pilots, flight crews, aircraft, or users of the Evergreen Sky Ranch Airport, you should consider listing it here.  To start the listing process, click on the button below
 
Add a business
 

Other Pages about Evergreen Sky Ranch Airport

Update a link
 
Copyright © AirNav, LLC. All rights reserved. Privacy Policy  Contact